Time;durP1;ratioP1;P1;durP2;ratioP2;P2;SDS_P1;SDS_P2;PMS_P1;PMS_P2;Temp;Humidity;BMP_temperature;BMP_pressure;BME280_temperature;BME280_humidity;BME280_pressure;Samples;Min_cycle;Max_cycle;Signal;HPM_P1;HPM_P2
2023/06/16 00:01:14;;;;;;;6.35;3.28;;;;;;;;;;5060544;27;98366;-73
2023/06/16 00:03:43;;;;;;;10.13;3.30;;;;;;;;;;5056937;27;103751;-73
2023/06/16 00:06:13;;;;;;;8.38;3.28;;;;;;;;;;5056543;27;99241;-74
2023/06/16 00:08:42;;;;;;;9.25;3.45;;;;;;;;;;5061389;27;99135;-74
2023/06/16 00:11:08;;;;;;;9.15;3.50;;;;;;;;;;5058371;27;98627;-74
2023/06/16 00:13:35;;;;;;;8.07;3.45;;;;;;;;;;5055885;27;103063;-73
2023/06/16 00:16:02;;;;;;;7.22;3.35;;;;;;;;;;5063521;27;99268;-74
2023/06/16 00:18:29;;;;;;;7.63;3.40;;;;;;;;;;5068149;27;98502;-73
2023/06/16 00:20:57;;;;;;;8.50;3.20;;;;;;;;;;5063695;27;101185;-74
2023/06/16 00:23:24;;;;;;;7.32;3.28;;;;;;;;;;5056254;27;98559;-74
2023/06/16 00:25:51;;;;;;;8.82;3.45;;;;;;;;;;5056276;27;98484;-74
2023/06/16 00:28:17;;;;;;;6.45;3.22;;;;;;;;;;5068882;27;99370;-74
2023/06/16 00:30:44;;;;;;;8.75;3.20;;;;;;;;;;5079656;27;99579;-74
2023/06/16 00:33:12;;;;;;;8.00;3.30;;;;;;;;;;5074784;27;99069;-74
2023/06/16 00:35:40;;;;;;;8.10;3.53;;;;;;;;;;5057065;27;98804;-74
2023/06/16 00:38:06;;;;;;;6.88;3.20;;;;;;;;;;5065087;27;98608;-74
2023/06/16 00:40:33;;;;;;;9.77;3.30;;;;;;;;;;5078719;27;100757;-74
2023/06/16 00:43:02;;;;;;;9.20;3.67;;;;;;;;;;5046427;27;101500;-74
2023/06/16 00:45:29;;;;;;;7.97;3.45;;;;;;;;;;5067379;27;98838;-74
2023/06/16 00:47:56;;;;;;;7.97;3.40;;;;;;;;;;5064082;27;98447;-74
2023/06/16 00:50:24;;;;;;;6.10;3.20;;;;;;;;;;5068842;27;101967;-74
2023/06/16 00:52:51;;;;;;;7.97;3.47;;;;;;;;;;5072479;27;99004;-74
2023/06/16 00:55:21;;;;;;;7.00;3.60;;;;;;;;;;5055364;27;99612;-74
2023/06/16 00:57:52;;;;;;;7.63;3.58;;;;;;;;;;5042232;27;98194;-74
2023/06/16 01:00:20;;;;;;;7.72;3.33;;;;;;;;;;5064060;27;100881;-74
2023/06/16 01:02:47;;;;;;;8.25;3.45;;;;;;;;;;5062394;27;99850;-74
2023/06/16 01:05:17;;;;;;;7.93;3.25;;;;;;;;;;5056529;27;98552;-74
2023/06/16 01:07:51;;;;;;;6.75;3.33;;;;;;;;;;5056886;27;98781;-74
2023/06/16 01:10:22;;;;;;;8.45;3.70;;;;;;;;;;5055704;27;101791;-74
2023/06/16 01:12:52;;;;;;;7.38;3.47;;;;;;;;;;5057524;27;98091;-74
2023/06/16 01:15:22;;;;;;;6.93;3.22;;;;;;;;;;5057907;27;98535;-74
2023/06/16 01:17:50;;;;;;;7.60;3.28;;;;;;;;;;5054866;27;98452;-74
2023/06/16 01:20:17;;;;;;;8.88;3.28;;;;;;;;;;5057032;27;98800;-74
2023/06/16 01:23:01;;;;;;;8.70;3.63;;;;;;;;;;5054728;27;101817;-75
2023/06/16 01:25:29;;;;;;;8.35;3.40;;;;;;;;;;5054297;27;98274;-74
2023/06/16 01:27:57;;;;;;;8.48;3.42;;;;;;;;;;5067413;27;100283;-73
2023/06/16 01:30:25;;;;;;;6.95;3.20;;;;;;;;;;5055173;27;100908;-74
2023/06/16 01:32:53;;;;;;;6.85;3.45;;;;;;;;;;5068147;27;98598;-74
2023/06/16 01:35:20;;;;;;;7.32;3.35;;;;;;;;;;5054918;27;100306;-74
2023/06/16 01:37:49;;;;;;;8.32;3.28;;;;;;;;;;5065224;27;97997;-74
2023/06/16 01:40:15;;;;;;;9.90;3.47;;;;;;;;;;5075779;27;99261;-74
2023/06/16 01:42:44;;;;;;;7.63;3.38;;;;;;;;;;5065758;27;98700;-73
2023/06/16 01:45:12;;;;;;;7.43;3.45;;;;;;;;;;5059231;27;99108;-75
2023/06/16 01:47:38;;;;;;;8.05;3.67;;;;;;;;;;5062481;27;99538;-74
2023/06/16 01:50:06;;;;;;;7.30;3.70;;;;;;;;;;5055231;27;101433;-73
2023/06/16 01:52:32;;;;;;;10.10;3.50;;;;;;;;;;5063876;27;98634;-74
2023/06/16 01:54:59;;;;;;;8.57;3.88;;;;;;;;;;5065927;27;100585;-74
2023/06/16 01:57:26;;;;;;;7.32;3.60;;;;;;;;;;5066475;27;101093;-74
2023/06/16 01:59:55;;;;;;;8.75;4.03;;;;;;;;;;5057874;27;98598;-74
2023/06/16 02:02:25;;;;;;;7.88;3.92;;;;;;;;;;5061697;27;100597;-74
2023/06/16 02:04:53;;;;;;;7.05;3.40;;;;;;;;;;5056269;27;98363;-73
2023/06/16 02:07:21;;;;;;;7.18;3.80;;;;;;;;;;5060479;27;98750;-74
2023/06/16 02:09:49;;;;;;;8.35;3.60;;;;;;;;;;5071092;27;99704;-74
2023/06/16 02:12:16;;;;;;;9.95;4.00;;;;;;;;;;5054416;27;99414;-73
2023/06/16 02:14:43;;;;;;;9.63;3.78;;;;;;;;;;5053995;27;98674;-74
2023/06/16 02:17:12;;;;;;;8.43;4.18;;;;;;;;;;5059892;27;99669;-75
2023/06/16 02:19:39;;;;;;;10.55;4.28;;;;;;;;;;5071330;27;100361;-74
2023/06/16 02:22:06;;;;;;;8.52;4.45;;;;;;;;;;5058016;27;98828;-74
2023/06/16 02:24:32;;;;;;;9.73;4.25;;;;;;;;;;5054074;27;98798;-74
2023/06/16 02:26:59;;;;;;;9.15;4.43;;;;;;;;;;5060457;27;99481;-74
2023/06/16 02:29:25;;;;;;;8.38;4.00;;;;;;;;;;5071630;27;99524;-74
2023/06/16 02:31:52;;;;;;;9.80;4.32;;;;;;;;;;5059017;27;98386;-74
2023/06/16 02:34:19;;;;;;;8.52;3.60;;;;;;;;;;5074090;27;101041;-74
2023/06/16 02:36:46;;;;;;;7.25;3.45;;;;;;;;;;5068745;27;101457;-74
2023/06/16 02:39:13;;;;;;;8.10;3.95;;;;;;;;;;5065957;27;98215;-74
2023/06/16 02:41:40;;;;;;;9.73;3.72;;;;;;;;;;5063169;27;98828;-74
2023/06/16 02:44:07;;;;;;;7.78;3.78;;;;;;;;;;5053299;27;98451;-74
2023/06/16 02:46:34;;;;;;;10.65;4.03;;;;;;;;;;5065478;27;98635;-74
2023/06/16 02:49:01;;;;;;;8.30;3.65;;;;;;;;;;5073936;27;100898;-74
2023/06/16 02:51:27;;;;;;;9.38;4.00;;;;;;;;;;5063978;27;97963;-74
2023/06/16 02:53:54;;;;;;;9.32;3.70;;;;;;;;;;5076516;27;101004;-74
2023/06/16 02:56:23;;;;;;;8.27;3.67;;;;;;;;;;5074346;27;101137;-74
2023/06/16 02:58:50;;;;;;;7.43;3.80;;;;;;;;;;5040778;27;98903;-74
2023/06/16 03:01:17;;;;;;;8.90;4.22;;;;;;;;;;5053385;27;102244;-74
2023/06/16 03:04:04;;;;;;;7.88;3.70;;;;;;;;;;5070633;27;100092;-75
2023/06/16 03:06:57;;;;;;;8.75;3.75;;;;;;;;;;5063208;27;100669;-74
2023/06/16 03:09:35;;;;;;;8.30;4.18;;;;;;;;;;5059710;27;106091;-74
2023/06/16 03:12:04;;;;;;;6.88;3.55;;;;;;;;;;5069195;27;100864;-74
2023/06/16 03:14:35;;;;;;;7.65;3.70;;;;;;;;;;5055990;27;100677;-74
2023/06/16 03:17:11;;;;;;;8.18;3.60;;;;;;;;;;5063499;27;100790;-75
2023/06/16 03:19:38;;;;;;;8.38;3.92;;;;;;;;;;5063480;27;98454;-73
2023/06/16 03:22:05;;;;;;;8.80;4.05;;;;;;;;;;5062371;27;101170;-73
2023/06/16 03:24:38;;;;;;;9.32;4.20;;;;;;;;;;5058459;27;102114;-74
2023/06/16 03:27:05;;;;;;;8.77;4.10;;;;;;;;;;5070236;27;98580;-74
2023/06/16 03:29:48;;;;;;;7.93;3.72;;;;;;;;;;5065624;27;105479;-73
2023/06/16 03:32:14;;;;;;;7.82;4.00;;;;;;;;;;5075416;27;98049;-73
2023/06/16 03:34:44;;;;;;;8.30;4.05;;;;;;;;;;5060470;27;99315;-74
2023/06/16 03:37:10;;;;;;;7.53;4.00;;;;;;;;;;5072094;27;98744;-75
2023/06/16 03:39:39;;;;;;;9.05;4.45;;;;;;;;;;5076329;27;98671;-73
2023/06/16 03:42:06;;;;;;;9.05;4.10;;;;;;;;;;5057442;27;100724;-73
2023/06/16 03:44:32;;;;;;;8.57;4.10;;;;;;;;;;5066067;27;101494;-74
2023/06/16 03:46:59;;;;;;;9.02;3.55;;;;;;;;;;5074968;27;99086;-74
2023/06/16 03:49:28;;;;;;;10.23;4.10;;;;;;;;;;5066326;27;101449;-73
2023/06/16 03:51:57;;;;;;;7.85;3.88;;;;;;;;;;5059604;27;98128;-74
2023/06/16 03:54:26;;;;;;;9.23;4.50;;;;;;;;;;5067147;27;100506;-74
2023/06/16 03:56:53;;;;;;;7.80;3.90;;;;;;;;;;5056350;27;99044;-73
2023/06/16 03:59:21;;;;;;;10.73;3.95;;;;;;;;;;5055311;27;98438;-74
2023/06/16 04:01:51;;;;;;;8.15;4.15;;;;;;;;;;5053604;27;101009;-74
2023/06/16 04:04:19;;;;;;;10.95;4.15;;;;;;;;;;5054926;27;100631;-73
2023/06/16 04:06:48;;;;;;;9.18;4.00;;;;;;;;;;5056549;27;97557;-74
2023/06/16 04:09:15;;;;;;;9.43;4.55;;;;;;;;;;5056964;27;98601;-74
2023/06/16 04:11:42;;;;;;;7.60;3.67;;;;;;;;;;5058944;27;101664;-74
2023/06/16 04:14:10;;;;;;;8.55;3.78;;;;;;;;;;5056184;27;99368;-74
2023/06/16 04:16:40;;;;;;;7.35;3.58;;;;;;;;;;5074273;27;101333;-74
2023/06/16 04:19:08;;;;;;;8.50;3.90;;;;;;;;;;5056188;27;98596;-74
2023/06/16 04:21:36;;;;;;;9.30;3.70;;;;;;;;;;5056060;27;100895;-74
2023/06/16 04:24:04;;;;;;;7.93;4.00;;;;;;;;;;5071443;27;101453;-74
2023/06/16 04:26:32;;;;;;;10.02;4.32;;;;;;;;;;5056431;27;98381;-74
2023/06/16 04:29:03;;;;;;;8.75;4.32;;;;;;;;;;5072082;27;101224;-74
2023/06/16 04:31:35;;;;;;;7.90;3.78;;;;;;;;;;5044984;27;98747;-74
2023/06/16 04:34:04;;;;;;;8.93;3.92;;;;;;;;;;5055889;27;99597;-74
2023/06/16 04:36:35;;;;;;;11.20;4.72;;;;;;;;;;5054320;27;100953;-74
2023/06/16 04:39:11;;;;;;;9.52;4.45;;;;;;;;;;5056648;27;99009;-75
2023/06/16 04:41:38;;;;;;;9.25;4.30;;;;;;;;;;5061706;27;99617;-74
2023/06/16 04:44:06;;;;;;;8.93;4.22;;;;;;;;;;5053866;27;99319;-74
2023/06/16 04:46:33;;;;;;;9.07;4.40;;;;;;;;;;5055139;27;98834;-74
2023/06/16 04:49:01;;;;;;;9.13;4.40;;;;;;;;;;5064477;27;100781;-74
2023/06/16 04:51:28;;;;;;;9.00;4.28;;;;;;;;;;5064931;27;99144;-74
2023/06/16 04:53:54;;;;;;;7.80;4.28;;;;;;;;;;5059920;27;98667;-74
2023/06/16 04:56:21;;;;;;;7.93;4.10;;;;;;;;;;5056933;27;99117;-74
2023/06/16 04:58:48;;;;;;;7.45;3.80;;;;;;;;;;5057004;27;98250;-74
2023/06/16 05:01:14;;;;;;;9.80;3.70;;;;;;;;;;5049121;27;101260;-73
2023/06/16 05:03:41;;;;;;;7.95;3.80;;;;;;;;;;5059746;27;102403;-74
2023/06/16 05:06:07;;;;;;;7.40;4.00;;;;;;;;;;5077238;27;98133;-73
2023/06/16 05:08:34;;;;;;;8.57;4.30;;;;;;;;;;5057583;27;101167;-74
2023/06/16 05:11:01;;;;;;;8.68;3.80;;;;;;;;;;5060418;27;98967;-74
2023/06/16 05:13:29;;;;;;;10.13;4.03;;;;;;;;;;5059605;27;98684;-74
2023/06/16 05:15:56;;;;;;;9.25;4.18;;;;;;;;;;5060774;27;100894;-74
2023/06/16 05:18:24;;;;;;;8.57;3.75;;;;;;;;;;5058758;27;98712;-74
2023/06/16 05:20:50;;;;;;;10.07;4.13;;;;;;;;;;5076403;27;101329;-74
2023/06/16 05:23:17;;;;;;;8.15;3.80;;;;;;;;;;5058770;27;101048;-74
2023/06/16 05:25:45;;;;;;;7.97;3.60;;;;;;;;;;5054033;27;98551;-74
2023/06/16 05:28:11;;;;;;;7.90;3.78;;;;;;;;;;5064459;27;100471;-74
2023/06/16 05:30:38;;;;;;;7.95;3.63;;;;;;;;;;5064080;27;100659;-75
2023/06/16 05:33:05;;;;;;;7.85;3.75;;;;;;;;;;5066756;27;98760;-74
2023/06/16 05:35:32;;;;;;;8.52;3.42;;;;;;;;;;5074277;27;101399;-74
2023/06/16 05:37:58;;;;;;;9.55;3.40;;;;;;;;;;5073133;27;101255;-73
2023/06/16 05:40:26;;;;;;;7.30;3.42;;;;;;;;;;5063132;27;100486;-74
2023/06/16 05:42:53;;;;;;;9.45;3.75;;;;;;;;;;5063898;27;98913;-74
2023/06/16 05:45:20;;;;;;;7.38;3.45;;;;;;;;;;5063250;27;98658;-74
2023/06/16 05:47:47;;;;;;;11.43;3.75;;;;;;;;;;5057413;27;100670;-73
2023/06/16 05:50:14;;;;;;;10.52;3.85;;;;;;;;;;5072825;27;101031;-73
2023/06/16 05:52:41;;;;;;;;;;;;;;;;;;5061772;27;99377;-74
2023/06/16 05:55:08;;;;;;;7.82;3.60;;;;;;;;;;5056588;27;118684;-73
2023/06/16 05:57:41;;;;;;;9.75;3.63;;;;;;;;;;5059706;27;103162;-74
2023/06/16 06:00:08;;;;;;;9.80;3.90;;;;;;;;;;5067363;27;98696;-73
2023/06/16 06:02:43;;;;;;;8.80;3.65;;;;;;;;;;5060220;27;101011;-73
2023/06/16 06:05:25;;;;;;;7.30;3.58;;;;;;;;;;5067547;27;98761;-73
2023/06/16 06:07:52;;;;;;;9.73;3.40;;;;;;;;;;5068099;27;101103;-73
2023/06/16 06:10:18;;;;;;;9.00;3.70;;;;;;;;;;5074232;27;100624;-73
2023/06/16 06:12:47;;;;;;;10.57;4.30;;;;;;;;;;5068161;27;98970;-73
2023/06/16 06:15:14;;;;;;;10.98;4.45;;;;;;;;;;5062751;27;100540;-74
2023/06/16 06:17:42;;;;;;;8.82;3.72;;;;;;;;;;5066740;27;102123;-73
2023/06/16 06:20:09;;;;;;;8.73;3.88;;;;;;;;;;5067062;27;98486;-73
2023/06/16 06:22:36;;;;;;;7.88;3.63;;;;;;;;;;5070052;27;101083;-73
2023/06/16 06:25:04;;;;;;;7.35;3.38;;;;;;;;;;5066696;27;98522;-73
2023/06/16 06:27:31;;;;;;;9.60;4.10;;;;;;;;;;5070635;27;99808;-73
2023/06/16 06:29:58;;;;;;;9.27;4.00;;;;;;;;;;5059340;27;100972;-74
2023/06/16 06:32:24;;;;;;;9.15;3.50;;;;;;;;;;5072199;27;98667;-73
2023/06/16 06:34:51;;;;;;;8.52;3.45;;;;;;;;;;5070112;27;100743;-73
2023/06/16 06:37:18;;;;;;;10.10;3.40;;;;;;;;;;5061343;27;101560;-74
2023/06/16 06:39:46;;;;;;;8.35;3.90;;;;;;;;;;5071046;27;98995;-74
2023/06/16 06:42:15;;;;;;;8.13;3.35;;;;;;;;;;5056228;27;100946;-74
2023/06/16 06:44:49;;;;;;;7.90;3.13;;;;;;;;;;5067629;27;98579;-74
2023/06/16 06:47:17;;;;;;;8.27;3.78;;;;;;;;;;5053192;27;100857;-74
2023/06/16 06:49:48;;;;;;;7.38;3.25;;;;;;;;;;5071668;27;101353;-74
2023/06/16 06:52:15;;;;;;;8.15;2.90;;;;;;;;;;5061717;27;98527;-74
2023/06/16 06:54:41;;;;;;;7.20;3.20;;;;;;;;;;5058549;27;98418;-74
2023/06/16 06:57:08;;;;;;;6.88;3.13;;;;;;;;;;5065514;27;98751;-74
2023/06/16 06:59:34;;;;;;;8.95;3.15;;;;;;;;;;5058066;27;97763;-74
2023/06/16 07:02:01;;;;;;;6.65;2.97;;;;;;;;;;5058683;27;98187;-74
2023/06/16 07:04:28;;;;;;;7.03;3.40;;;;;;;;;;5073313;27;99527;-74
2023/06/16 07:06:55;;;;;;;7.15;3.30;;;;;;;;;;5067488;27;100156;-74
2023/06/16 07:09:22;;;;;;;7.10;3.03;;;;;;;;;;5057052;27;98887;-74
2023/06/16 07:11:57;;;;;;;9.52;3.17;;;;;;;;;;5060911;27;98035;-74
2023/06/16 07:14:23;;;;;;;7.28;3.28;;;;;;;;;;5060762;27;98366;-74
2023/06/16 07:16:50;;;;;;;10.35;3.50;;;;;;;;;;5075628;27;98897;-74
2023/06/16 07:19:16;;;;;;;7.80;3.05;;;;;;;;;;5068048;27;100021;-74
2023/06/16 07:21:43;;;;;;;9.18;3.30;;;;;;;;;;5056514;27;101561;-74
2023/06/16 07:24:10;;;;;;;14.32;3.90;;;;;;;;;;5061038;27;100266;-74
2023/06/16 07:26:37;;;;;;;8.05;3.30;;;;;;;;;;5080063;27;98196;-74
2023/06/16 07:29:04;;;;;;;9.95;3.60;;;;;;;;;;5076432;27;98790;-74
2023/06/16 07:31:33;;;;;;;9.20;3.40;;;;;;;;;;5064381;27;99338;-75
2023/06/16 07:33:59;;;;;;;10.05;3.33;;;;;;;;;;5075662;27;99607;-74
2023/06/16 07:36:26;;;;;;;7.05;3.28;;;;;;;;;;5056856;27;101876;-74
2023/06/16 07:38:53;;;;;;;8.50;3.10;;;;;;;;;;5067994;27;99739;-74
2023/06/16 07:41:19;;;;;;;10.07;3.33;;;;;;;;;;5057680;27;99062;-75
2023/06/16 07:43:48;;;;;;;7.13;2.90;;;;;;;;;;5067407;27;99701;-75
2023/06/16 07:46:17;;;;;;;9.88;3.70;;;;;;;;;;5067960;27;98745;-75
2023/06/16 07:48:43;;;;;;;10.20;3.33;;;;;;;;;;5074750;27;98468;-75
2023/06/16 07:51:10;;;;;;;8.60;3.63;;;;;;;;;;5057592;27;100813;-76
2023/06/16 07:53:39;;;;;;;7.10;3.17;;;;;;;;;;5076011;27;99540;-75
2023/06/16 07:56:06;;;;;;;7.15;3.20;;;;;;;;;;5063883;27;101042;-75
2023/06/16 07:58:35;;;;;;;10.43;3.40;;;;;;;;;;5063246;27;99254;-75
2023/06/16 08:01:01;;;;;;;7.50;3.70;;;;;;;;;;5062229;27;98559;-75
2023/06/16 08:03:28;;;;;;;8.25;3.30;;;;;;;;;;5074287;27;101517;-75
2023/06/16 08:05:55;;;;;;;8.40;3.13;;;;;;;;;;5076339;27;99056;-75
2023/06/16 08:08:22;;;;;;;6.68;2.95;;;;;;;;;;5057743;27;98401;-74
2023/06/16 08:10:48;;;;;;;7.43;3.13;;;;;;;;;;5074663;27;98733;-74
2023/06/16 08:13:15;;;;;;;7.65;3.30;;;;;;;;;;5071202;27;99017;-76
2023/06/16 08:15:42;;;;;;;8.70;3.30;;;;;;;;;;5074912;27;98923;-75
2023/06/16 08:18:08;;;;;;;7.55;3.20;;;;;;;;;;5071456;27;98176;-75
2023/06/16 08:20:37;;;;;;;6.43;2.92;;;;;;;;;;5064813;27;99345;-75
2023/06/16 08:23:03;;;;;;;5.88;2.88;;;;;;;;;;5073117;27;99087;-75
2023/06/16 08:25:30;;;;;;;7.53;3.35;;;;;;;;;;5060277;27;98302;-75
2023/06/16 08:27:57;;;;;;;;;;;;;;;;;;5063748;27;98675;-75
2023/06/16 08:30:23;;;;;;;6.53;3.10;;;;;;;;;;5075510;27;115988;-75
2023/06/16 08:32:52;;;;;;;7.35;3.30;;;;;;;;;;5060385;27;98118;-75
2023/06/16 08:35:19;;;;;;;6.70;3.15;;;;;;;;;;5063947;27;98894;-75
2023/06/16 08:37:45;;;;;;;7.07;3.13;;;;;;;;;;5066293;27;97575;-75
2023/06/16 08:40:12;;;;;;;6.28;2.97;;;;;;;;;;5077839;27;98296;-75
2023/06/16 08:42:40;;;;;;;8.25;3.10;;;;;;;;;;5065060;27;98848;-74
2023/06/16 08:45:07;;;;;;;6.05;2.85;;;;;;;;;;5056292;27;98870;-75
2023/06/16 08:47:34;;;;;;;6.80;3.13;;;;;;;;;;5060757;27;99172;-75
2023/06/16 08:50:01;;;;;;;6.70;3.05;;;;;;;;;;5055656;27;98769;-76
2023/06/16 08:52:29;;;;;;;7.75;2.95;;;;;;;;;;5068108;27;98449;-76
2023/06/16 08:55:11;;;;;;;6.82;3.00;;;;;;;;;;5069332;27;99169;-75
2023/06/16 08:57:40;;;;;;;6.97;3.45;;;;;;;;;;5059516;27;101555;-75
2023/06/16 09:00:09;;;;;;;7.05;3.10;;;;;;;;;;5056005;27;99293;-76
2023/06/16 09:02:36;;;;;;;6.80;3.42;;;;;;;;;;5055302;27;98006;-74
2023/06/16 09:05:03;;;;;;;6.53;2.92;;;;;;;;;;5058885;27;98787;-74
2023/06/16 09:07:30;;;;;;;7.85;3.03;;;;;;;;;;5071331;27;98949;-75
2023/06/16 09:09:58;;;;;;;7.25;3.13;;;;;;;;;;5074995;27;100727;-75
2023/06/16 09:12:24;;;;;;;7.90;3.20;;;;;;;;;;5067594;27;98921;-75
2023/06/16 09:14:51;;;;;;;7.03;3.00;;;;;;;;;;5064491;27;101014;-75
2023/06/16 09:17:30;;;;;;;7.40;3.33;;;;;;;;;;5069543;27;99880;-75
2023/06/16 09:19:56;;;;;;;6.78;3.25;;;;;;;;;;5074103;27;100515;-74
2023/06/16 09:22:25;;;;;;;7.53;3.25;;;;;;;;;;5055770;27;98755;-74
2023/06/16 09:24:54;;;;;;;6.85;2.97;;;;;;;;;;5065605;27;98512;-75
2023/06/16 09:27:23;;;;;;;7.75;3.33;;;;;;;;;;5060158;27;101102;-75
2023/06/16 09:29:59;;;;;;;7.47;3.25;;;;;;;;;;5067995;27;99184;-74
2023/06/16 09:32:35;;;;;;;6.05;2.95;;;;;;;;;;5071438;27;98584;-74
2023/06/16 09:35:13;;;;;;;7.47;3.20;;;;;;;;;;5066978;27;100957;-75
2023/06/16 09:37:40;;;;;;;6.15;2.85;;;;;;;;;;5054065;27;105937;-74
2023/06/16 09:40:09;;;;;;;7.63;3.30;;;;;;;;;;5074922;27;98443;-75
2023/06/16 09:42:39;;;;;;;6.40;3.20;;;;;;;;;;5062098;27;99716;-75
2023/06/16 09:45:15;;;;;;;6.70;3.00;;;;;;;;;;5055552;27;98129;-75
2023/06/16 09:47:45;;;;;;;6.63;3.13;;;;;;;;;;5055497;27;102719;-74
2023/06/16 09:50:13;;;;;;;6.40;3.00;;;;;;;;;;5055564;27;99075;-75
2023/06/16 09:52:44;;;;;;;7.25;3.33;;;;;;;;;;5063234;27;97591;-75
2023/06/16 09:55:14;;;;;;;7.47;3.28;;;;;;;;;;5053836;27;98124;-76
2023/06/16 09:57:42;;;;;;;7.57;3.30;;;;;;;;;;5055207;27;99333;-75
2023/06/16 10:00:15;;;;;;;9.55;3.38;;;;;;;;;;5064054;27;98914;-76
2023/06/16 10:02:46;;;;;;;7.30;3.40;;;;;;;;;;5064305;27;99204;-76
2023/06/16 10:05:14;;;;;;;7.93;3.85;;;;;;;;;;5053027;27;98327;-76
2023/06/16 10:07:42;;;;;;;7.15;3.35;;;;;;;;;;5060285;27;98856;-74
2023/06/16 10:10:10;;;;;;;7.40;3.25;;;;;;;;;;5055763;27;101770;-74
2023/06/16 10:12:37;;;;;;;8.38;3.00;;;;;;;;;;5063716;27;98547;-73
2023/06/16 10:15:05;;;;;;;6.43;3.17;;;;;;;;;;5052658;27;98451;-73
2023/06/16 10:17:32;;;;;;;8.52;3.28;;;;;;;;;;5061669;27;98474;-74
2023/06/16 10:19:59;;;;;;;;;;;;;;;;;;5066293;27;98689;-74
2023/06/16 10:22:25;;;;;;;7.93;3.08;;;;;;;;;;5059942;27;107020;-74
2023/06/16 10:24:52;;;;;;;6.28;2.88;;;;;;;;;;5062759;27;99203;-74
2023/06/16 10:27:19;;;;;;;7.22;3.28;;;;;;;;;;5067773;27;99869;-74
2023/06/16 10:29:46;;;;;;;;;;;;;;;;;;5071955;27;99123;-74
2023/06/16 10:32:13;;;;;;;7.53;3.08;;;;;;;;;;5065167;27;98645;-74
2023/06/16 10:34:47;;;;;;;6.38;3.00;;;;;;;;;;5064920;27;99476;-74
2023/06/16 10:37:14;;;;;;;7.28;3.22;;;;;;;;;;5071799;27;99066;-74
2023/06/16 10:39:41;;;;;;;7.93;3.33;;;;;;;;;;5070062;27;98380;-73
2023/06/16 10:42:11;;;;;;;7.13;3.00;;;;;;;;;;5077131;27;98229;-74
2023/06/16 10:44:38;;;;;;;6.53;3.30;;;;;;;;;;5057029;27;98514;-74
2023/06/16 10:47:04;;;;;;;7.20;3.50;;;;;;;;;;5056315;27;99177;-75
2023/06/16 10:49:31;;;;;;;7.25;3.15;;;;;;;;;;5065534;27;99779;-74
2023/06/16 10:51:59;;;;;;;6.35;3.10;;;;;;;;;;5066506;27;98254;-74
2023/06/16 10:54:37;;;;;;;6.78;3.40;;;;;;;;;;5072170;27;99186;-73
2023/06/16 10:57:05;;;;;;;7.13;3.30;;;;;;;;;;5065917;27;98788;-73
2023/06/16 10:59:57;;;;;;;6.50;3.30;;;;;;;;;;5057411;27;99035;-74
2023/06/16 11:02:24;;;;;;;;;;;;;;;;;;5061730;27;98632;-74
2023/06/16 11:05:07;;;;;;;7.60;3.53;;;;;;;;;;5062502;27;115323;-74
2023/06/16 11:07:38;;;;;;;7.15;3.65;;;;;;;;;;5068249;27;98496;-74
2023/06/16 11:10:08;;;;;;;7.55;3.35;;;;;;;;;;5071342;27;98735;-74
2023/06/16 11:12:35;;;;;;;6.88;3.33;;;;;;;;;;5069694;27;98138;-73
2023/06/16 11:15:02;;;;;;;;;;;;;;;;;;5058364;27;98940;-74
2023/06/16 11:17:28;;;;;;;7.13;3.03;;;;;;;;;;5058137;27;98770;-73
2023/06/16 11:19:55;;;;;;;6.35;3.30;;;;;;;;;;5061914;27;105779;-74
2023/06/16 11:22:29;;;;;;;6.35;3.00;;;;;;;;;;5064544;27;98507;-74
2023/06/16 11:24:55;;;;;;;6.68;3.03;;;;;;;;;;5058064;27;98784;-74
2023/06/16 11:27:22;;;;;;;6.95;3.17;;;;;;;;;;5059260;27;98256;-74
2023/06/16 11:29:48;;;;;;;6.35;3.03;;;;;;;;;;5058127;27;99564;-74
2023/06/16 11:32:18;;;;;;;8.55;3.42;;;;;;;;;;5066008;27;97451;-73
2023/06/16 11:34:45;;;;;;;6.85;3.15;;;;;;;;;;5061159;27;98798;-74
2023/06/16 11:37:11;;;;;;;6.40;3.10;;;;;;;;;;5055712;27;100599;-75
2023/06/16 11:39:42;;;;;;;6.25;3.03;;;;;;;;;;5057557;27;98806;-76
2023/06/16 11:42:12;;;;;;;5.80;2.97;;;;;;;;;;5059365;27;99152;-75
2023/06/16 11:44:39;;;;;;;6.00;3.13;;;;;;;;;;5055877;27;100197;-75
2023/06/16 11:47:05;;;;;;;6.63;2.90;;;;;;;;;;5057195;27;98918;-75
2023/06/16 11:49:38;;;;;;;7.15;3.25;;;;;;;;;;5052116;27;101181;-75
2023/06/16 11:52:05;;;;;;;;;;;;;;;;;;5058920;27;98714;-76
2023/06/16 11:54:32;;;;;;;6.22;3.03;;;;;;;;;;5069622;27;98358;-75
2023/06/16 11:56:59;;;;;;;6.80;2.90;;;;;;;;;;5070294;27;97989;-75
2023/06/16 11:59:30;;;;;;;;;;;;;;;;;;5064824;27;98870;-75
2023/06/16 12:01:57;;;;;;;6.72;2.92;;;;;;;;;;5059437;27;116692;-75
2023/06/16 12:04:25;;;;;;;6.60;3.35;;;;;;;;;;5070166;27;99931;-75
2023/06/16 12:06:52;;;;;;;6.28;2.95;;;;;;;;;;5058173;27;98500;-76
2023/06/16 12:09:20;;;;;;;6.53;3.15;;;;;;;;;;5072683;27;98444;-74
2023/06/16 12:11:48;;;;;;;7.35;2.97;;;;;;;;;;5073985;27;98562;-74
2023/06/16 12:14:22;;;;;;;5.95;2.92;;;;;;;;;;5068796;27;99320;-74
2023/06/16 12:16:49;;;;;;;6.93;2.70;;;;;;;;;;5063858;27;98726;-74
2023/06/16 12:19:15;;;;;;;;;;;;;;;;;;5073122;27;98606;-75
2023/06/16 12:21:41;;;;;;;6.20;3.05;;;;;;;;;;5078859;27;115553;-74
2023/06/16 12:24:09;;;;;;;6.43;2.85;;;;;;;;;;5074633;27;98877;-74
2023/06/16 12:26:40;;;;;;;6.05;2.85;;;;;;;;;;5067269;27;98669;-74
2023/06/16 12:29:14;;;;;;;5.88;2.90;;;;;;;;;;5058598;27;99558;-73
2023/06/16 12:31:51;;;;;;;5.15;2.75;;;;;;;;;;5067117;27;102982;-75
2023/06/16 12:34:29;;;;;;;5.97;2.80;;;;;;;;;;5061576;27;98300;-75
2023/06/16 12:37:01;;;;;;;5.82;2.80;;;;;;;;;;5055810;27;99087;-74
2023/06/16 12:39:28;;;;;;;7.03;2.80;;;;;;;;;;5063947;27;98407;-74
2023/06/16 12:41:55;;;;;;;7.18;3.13;;;;;;;;;;5066210;27;98527;-74
2023/06/16 12:44:22;;;;;;;6.70;2.97;;;;;;;;;;5056479;27;98784;-74
2023/06/16 12:46:51;;;;;;;5.53;2.60;;;;;;;;;;5059956;27;97806;-74
2023/06/16 12:49:19;;;;;;;7.82;2.90;;;;;;;;;;5056928;27;100057;-74
2023/06/16 12:51:45;;;;;;;6.75;3.17;;;;;;;;;;5060479;27;99108;-74
2023/06/16 12:54:12;;;;;;;6.18;2.90;;;;;;;;;;5059769;27;99679;-74
2023/06/16 12:56:38;;;;;;;6.68;3.00;;;;;;;;;;5055931;27;99116;-74
2023/06/16 12:59:05;;;;;;;4.82;2.60;;;;;;;;;;5056736;27;98736;-74
2023/06/16 13:01:31;;;;;;;5.22;3.00;;;;;;;;;;5056387;27;98419;-73
2023/06/16 13:03:58;;;;;;;5.88;2.90;;;;;;;;;;5068865;27;98846;-74
2023/06/16 13:06:25;;;;;;;7.35;2.83;;;;;;;;;;5058012;27;98290;-74
2023/06/16 13:08:51;;;;;;;5.30;2.70;;;;;;;;;;5054865;27;99862;-74
2023/06/16 13:11:18;;;;;;;7.80;3.00;;;;;;;;;;5073146;27;98976;-74
2023/06/16 13:13:44;;;;;;;5.63;2.90;;;;;;;;;;5057274;27;98638;-74
2023/06/16 13:16:11;;;;;;;6.18;2.90;;;;;;;;;;5060080;27;98567;-74
2023/06/16 13:18:37;;;;;;;4.88;2.60;;;;;;;;;;5057174;27;98897;-74
2023/06/16 13:21:04;;;;;;;6.00;2.92;;;;;;;;;;5057202;27;99534;-74
2023/06/16 13:23:30;;;;;;;5.97;2.70;;;;;;;;;;5066414;27;99111;-74
2023/06/16 13:25:57;;;;;;;5.55;2.70;;;;;;;;;;5056456;27;98858;-74
2023/06/16 13:28:23;;;;;;;6.38;2.70;;;;;;;;;;5065468;27;98723;-74
2023/06/16 13:30:50;;;;;;;7.13;2.85;;;;;;;;;;5056362;27;101726;-74
2023/06/16 13:33:17;;;;;;;6.22;2.95;;;;;;;;;;5062542;27;98519;-75
2023/06/16 13:35:43;;;;;;;6.10;3.10;;;;;;;;;;5072038;27;101112;-74
2023/06/16 13:38:10;;;;;;;6.00;2.70;;;;;;;;;;5069564;27;101362;-74
2023/06/16 13:40:36;;;;;;;6.03;2.80;;;;;;;;;;5066700;27;98471;-74
2023/06/16 13:43:04;;;;;;;5.85;3.00;;;;;;;;;;5062938;27;99954;-74
2023/06/16 13:45:31;;;;;;;5.43;2.65;;;;;;;;;;5055549;27;98649;-75
2023/06/16 13:47:57;;;;;;;6.07;2.92;;;;;;;;;;5054832;27;100195;-74
2023/06/16 13:50:24;;;;;;;5.47;2.80;;;;;;;;;;5073806;27;101822;-74
2023/06/16 13:52:50;;;;;;;5.30;2.60;;;;;;;;;;5057823;27;98523;-74
2023/06/16 13:55:17;;;;;;;5.40;2.72;;;;;;;;;;5055141;27;98954;-74
2023/06/16 13:57:43;;;;;;;5.63;3.10;;;;;;;;;;5062801;27;99302;-74
2023/06/16 14:00:10;;;;;;;6.70;2.90;;;;;;;;;;5058161;27;99869;-74
2023/06/16 14:02:37;;;;;;;5.07;2.78;;;;;;;;;;5055511;27;98629;-74
2023/06/16 14:05:04;;;;;;;5.30;2.83;;;;;;;;;;5055739;27;98492;-74
2023/06/16 14:07:32;;;;;;;5.97;2.80;;;;;;;;;;5054973;27;99076;-75
2023/06/16 14:09:58;;;;;;;6.47;3.08;;;;;;;;;;5055276;27;98781;-74
2023/06/16 14:12:25;;;;;;;6.38;3.00;;;;;;;;;;5055631;27;98804;-74
2023/06/16 14:14:51;;;;;;;6.22;2.72;;;;;;;;;;5053752;27;101139;-74
2023/06/16 14:17:18;;;;;;;5.60;2.80;;;;;;;;;;5054453;27;99213;-74
2023/06/16 14:19:44;;;;;;;5.68;3.13;;;;;;;;;;5068332;27;98726;-74
2023/06/16 14:22:11;;;;;;;5.78;2.88;;;;;;;;;;5073360;27;98636;-74
2023/06/16 14:24:37;;;;;;;6.47;2.83;;;;;;;;;;5058436;27;97956;-74
2023/06/16 14:27:04;;;;;;;6.32;2.80;;;;;;;;;;5058571;27;98523;-74
2023/06/16 14:29:34;;;;;;;6.55;2.80;;;;;;;;;;5058719;27;98866;-74
2023/06/16 14:32:00;;;;;;;6.20;3.00;;;;;;;;;;5054986;27;101545;-74
2023/06/16 14:34:29;;;;;;;6.20;2.80;;;;;;;;;;5056363;27;99442;-74
2023/06/16 14:36:56;;;;;;;5.80;3.00;;;;;;;;;;5054074;27;101562;-74
2023/06/16 14:39:23;;;;;;;6.68;2.88;;;;;;;;;;5054808;27;98228;-74
2023/06/16 14:41:49;;;;;;;5.82;2.92;;;;;;;;;;5057672;27;99587;-74
2023/06/16 14:44:16;;;;;;;5.43;2.90;;;;;;;;;;5065798;27;98786;-74
2023/06/16 14:46:42;;;;;;;5.95;3.05;;;;;;;;;;5055506;27;101080;-74